sensor_id;sensor_type;location;lat;lon;timestamp;temperature;humidity
17774;DHT22;9011;33.236;-97.118;2022-09-03T00:02:03;29.80;99.90
17774;DHT22;9011;33.236;-97.118;2022-09-03T00:04:40;29.70;99.90
17774;DHT22;9011;33.236;-97.118;2022-09-03T00:07:16;29.60;99.90
17774;DHT22;9011;33.236;-97.118;2022-09-03T00:09:49;29.60;99.90
17774;DHT22;9011;33.236;-97.118;2022-09-03T00:12:22;29.60;99.90
17774;DHT22;9011;33.236;-97.118;2022-09-03T00:14:54;29.50;99.90
17774;DHT22;9011;33.236;-97.118;2022-09-03T00:17:28;29.50;99.90
17774;DHT22;9011;33.236;-97.118;2022-09-03T00:20:01;29.20;99.90
17774;DHT22;9011;33.236;-97.118;2022-09-03T00:22:32;29.20;99.90
17774;DHT22;9011;33.236;-97.118;2022-09-03T00:25:06;29.20;99.90
17774;DHT22;9011;33.236;-97.118;2022-09-03T00:27:39;29.20;99.90
17774;DHT22;9011;33.236;-97.118;2022-09-03T00:30:10;29.20;99.90
17774;DHT22;9011;33.236;-97.118;2022-09-03T00:32:41;29.00;99.90
17774;DHT22;9011;33.236;-97.118;2022-09-03T00:35:16;28.70;99.90
17774;DHT22;9011;33.236;-97.118;2022-09-03T00:37:46;28.70;99.90
17774;DHT22;9011;33.236;-97.118;2022-09-03T00:40:24;28.70;99.90
17774;DHT22;9011;33.236;-97.118;2022-09-03T00:42:59;28.80;99.90
17774;DHT22;9011;33.236;-97.118;2022-09-03T00:45:36;28.70;99.90
17774;DHT22;9011;33.236;-97.118;2022-09-03T00:48:14;28.50;99.90
17774;DHT22;9011;33.236;-97.118;2022-09-03T00:50:54;28.50;99.90
17774;DHT22;9011;33.236;-97.118;2022-09-03T00:53:33;28.50;99.90
17774;DHT22;9011;33.236;-97.118;2022-09-03T00:56:08;28.50;99.90
17774;DHT22;9011;33.236;-97.118;2022-09-03T00:58:59;28.40;99.90
17774;DHT22;9011;33.236;-97.118;2022-09-03T01:01:38;28.00;99.90
17774;DHT22;9011;33.236;-97.118;2022-09-03T01:04:17;28.00;99.90
17774;DHT22;9011;33.236;-97.118;2022-09-03T01:06:54;28.10;99.90
17774;DHT22;9011;33.236;-97.118;2022-09-03T01:09:34;28.20;99.90
17774;DHT22;9011;33.236;-97.118;2022-09-03T01:12:12;28.20;99.90
17774;DHT22;9011;33.236;-97.118;2022-09-03T01:14:51;28.20;99.90
17774;DHT22;9011;33.236;-97.118;2022-09-03T01:17:32;28.10;99.90
17774;DHT22;9011;33.236;-97.118;2022-09-03T01:20:23;28.10;99.90
17774;DHT22;9011;33.236;-97.118;2022-09-03T01:23:14;28.10;99.90
17774;DHT22;9011;33.236;-97.118;2022-09-03T01:25:52;28.10;99.90
17774;DHT22;9011;33.236;-97.118;2022-09-03T01:28:37;28.10;99.90
17774;DHT22;9011;33.236;-97.118;2022-09-03T01:31:18;28.10;99.90
17774;DHT22;9011;33.236;-97.118;2022-09-03T01:33:56;27.90;99.90
17774;DHT22;9011;33.236;-97.118;2022-09-03T01:36:36;27.90;99.90
17774;DHT22;9011;33.236;-97.118;2022-09-03T01:39:06;27.80;99.90
17774;DHT22;9011;33.236;-97.118;2022-09-03T01:41:44;27.80;99.90
17774;DHT22;9011;33.236;-97.118;2022-09-03T01:44:41;27.80;99.90
17774;DHT22;9011;33.236;-97.118;2022-09-03T01:47:27;27.90;99.90
17774;DHT22;9011;33.236;-97.118;2022-09-03T01:50:05;27.60;99.90
17774;DHT22;9011;33.236;-97.118;2022-09-03T01:52:49;27.60;99.90
17774;DHT22;9011;33.236;-97.118;2022-09-03T01:55:27;27.50;99.90
17774;DHT22;9011;33.236;-97.118;2022-09-03T01:58:01;27.60;99.90
17774;DHT22;9011;33.236;-97.118;2022-09-03T02:00:40;27.70;99.90
17774;DHT22;9011;33.236;-97.118;2022-09-03T02:03:15;27.70;99.90
17774;DHT22;9011;33.236;-97.118;2022-09-03T02:05:46;27.70;99.90
17774;DHT22;9011;33.236;-97.118;2022-09-03T02:08:16;27.70;99.90
17774;DHT22;9011;33.236;-97.118;2022-09-03T02:10:46;27.60;99.90
17774;DHT22;9011;33.236;-97.118;2022-09-03T02:13:20;27.60;99.90
17774;DHT22;9011;33.236;-97.118;2022-09-03T02:15:52;27.60;99.90
17774;DHT22;9011;33.236;-97.118;2022-09-03T02:18:28;27.50;99.90
17774;DHT22;9011;33.236;-97.118;2022-09-03T02:21:01;27.40;99.90
17774;DHT22;9011;33.236;-97.118;2022-09-03T02:23:30;27.20;99.90
17774;DHT22;9011;33.236;-97.118;2022-09-03T02:26:02;27.30;99.90
17774;DHT22;9011;33.236;-97.118;2022-09-03T02:28:31;27.50;99.90
17774;DHT22;9011;33.236;-97.118;2022-09-03T02:31:05;27.50;99.90
17774;DHT22;9011;33.236;-97.118;2022-09-03T02:33:36;27.50;99.90
17774;DHT22;9011;33.236;-97.118;2022-09-03T02:36:15;27.30;99.90
17774;DHT22;9011;33.236;-97.118;2022-09-03T02:38:48;27.20;99.90
17774;DHT22;9011;33.236;-97.118;2022-09-03T02:41:16;27.10;99.90
17774;DHT22;9011;33.236;-97.118;2022-09-03T02:43:46;27.10;99.90
17774;DHT22;9011;33.236;-97.118;2022-09-03T02:46:22;27.20;99.90
17774;DHT22;9011;33.236;-97.118;2022-09-03T02:48:52;27.10;99.90
17774;DHT22;9011;33.236;-97.118;2022-09-03T02:51:20;27.00;99.90
17774;DHT22;9011;33.236;-97.118;2022-09-03T02:53:49;27.00;99.90
17774;DHT22;9011;33.236;-97.118;2022-09-03T02:56:18;27.00;99.90
17774;DHT22;9011;33.236;-97.118;2022-09-03T02:58:48;27.10;99.90
17774;DHT22;9011;33.236;-97.118;2022-09-03T03:01:18;27.10;99.90
17774;DHT22;9011;33.236;-97.118;2022-09-03T03:03:57;26.90;99.90
17774;DHT22;9011;33.236;-97.118;2022-09-03T03:06:43;27.00;99.90
17774;DHT22;9011;33.236;-97.118;2022-09-03T03:09:12;26.90;99.90
17774;DHT22;9011;33.236;-97.118;2022-09-03T03:11:40;26.70;99.90
17774;DHT22;9011;33.236;-97.118;2022-09-03T03:14:18;26.60;99.90
17774;DHT22;9011;33.236;-97.118;2022-09-03T03:17:05;26.60;99.90
17774;DHT22;9011;33.236;-97.118;2022-09-03T03:19:45;26.80;99.90
17774;DHT22;9011;33.236;-97.118;2022-09-03T03:22:27;26.60;99.90
17774;DHT22;9011;33.236;-97.118;2022-09-03T03:25:07;26.50;99.90
17774;DHT22;9011;33.236;-97.118;2022-09-03T03:27:36;26.70;99.90
17774;DHT22;9011;33.236;-97.118;2022-09-03T03:30:23;26.80;99.90
17774;DHT22;9011;33.236;-97.118;2022-09-03T03:32:57;26.80;99.90
17774;DHT22;9011;33.236;-97.118;2022-09-03T03:35:37;26.80;99.90
17774;DHT22;9011;33.236;-97.118;2022-09-03T03:38:10;26.90;99.90
17774;DHT22;9011;33.236;-97.118;2022-09-03T03:40:50;26.90;99.90
17774;DHT22;9011;33.236;-97.118;2022-09-03T03:43:27;26.80;99.90
17774;DHT22;9011;33.236;-97.118;2022-09-03T03:46:10;26.80;99.90
17774;DHT22;9011;33.236;-97.118;2022-09-03T03:48:40;26.70;99.90
17774;DHT22;9011;33.236;-97.118;2022-09-03T03:51:11;26.70;99.90
17774;DHT22;9011;33.236;-97.118;2022-09-03T03:53:41;26.80;99.90
17774;DHT22;9011;33.236;-97.118;2022-09-03T03:56:11;26.80;99.90
17774;DHT22;9011;33.236;-97.118;2022-09-03T03:58:40;26.90;99.90
17774;DHT22;9011;33.236;-97.118;2022-09-03T04:01:11;26.80;99.90
17774;DHT22;9011;33.236;-97.118;2022-09-03T04:03:41;26.80;99.90
17774;DHT22;9011;33.236;-97.118;2022-09-03T04:06:13;26.80;99.90
17774;DHT22;9011;33.236;-97.118;2022-09-03T04:08:47;26.80;99.90
17774;DHT22;9011;33.236;-97.118;2022-09-03T04:11:23;26.80;99.90
17774;DHT22;9011;33.236;-97.118;2022-09-03T04:13:57;26.90;99.90
17774;DHT22;9011;33.236;-97.118;2022-09-03T04:16:27;26.80;99.90
17774;DHT22;9011;33.236;-97.118;2022-09-03T04:18:59;26.60;99.90
17774;DHT22;9011;33.236;-97.118;2022-09-03T04:21:30;26.50;99.90
17774;DHT22;9011;33.236;-97.118;2022-09-03T04:23:59;26.50;99.90
17774;DHT22;9011;33.236;-97.118;2022-09-03T04:26:28;26.50;99.90
17774;DHT22;9011;33.236;-97.118;2022-09-03T04:28:58;26.50;99.90
17774;DHT22;9011;33.236;-97.118;2022-09-03T04:31:26;26.40;99.90
17774;DHT22;9011;33.236;-97.118;2022-09-03T04:34:04;26.40;99.90
17774;DHT22;9011;33.236;-97.118;2022-09-03T04:36:39;26.10;99.90
17774;DHT22;9011;33.236;-97.118;2022-09-03T04:39:12;26.10;99.90
17774;DHT22;9011;33.236;-97.118;2022-09-03T04:41:41;25.90;99.90
17774;DHT22;9011;33.236;-97.118;2022-09-03T04:44:11;25.70;99.90
17774;DHT22;9011;33.236;-97.118;2022-09-03T04:46:42;25.60;99.90
17774;DHT22;9011;33.236;-97.118;2022-09-03T04:49:14;25.60;99.90
17774;DHT22;9011;33.236;-97.118;2022-09-03T04:51:52;25.60;99.90
17774;DHT22;9011;33.236;-97.118;2022-09-03T04:54:23;25.80;99.90
17774;DHT22;9011;33.236;-97.118;2022-09-03T04:56:52;25.80;99.90
17774;DHT22;9011;33.236;-97.118;2022-09-03T04:59:24;25.90;99.90
17774;DHT22;9011;33.236;-97.118;2022-09-03T05:01:52;25.90;99.90
17774;DHT22;9011;33.236;-97.118;2022-09-03T05:04:26;25.90;99.90
17774;DHT22;9011;33.236;-97.118;2022-09-03T05:06:55;25.80;99.90
17774;DHT22;9011;33.236;-97.118;2022-09-03T05:09:27;25.80;99.90
17774;DHT22;9011;33.236;-97.118;2022-09-03T05:11:57;25.80;99.90
17774;DHT22;9011;33.236;-97.118;2022-09-03T05:14:30;25.90;99.90
17774;DHT22;9011;33.236;-97.118;2022-09-03T05:17:02;25.90;99.90
17774;DHT22;9011;33.236;-97.118;2022-09-03T05:19:35;25.80;99.90
17774;DHT22;9011;33.236;-97.118;2022-09-03T05:22:05;25.90;99.90
17774;DHT22;9011;33.236;-97.118;2022-09-03T05:24:34;25.90;99.90
17774;DHT22;9011;33.236;-97.118;2022-09-03T05:27:03;25.70;99.90
17774;DHT22;9011;33.236;-97.118;2022-09-03T05:29:33;25.80;99.90
17774;DHT22;9011;33.236;-97.118;2022-09-03T05:32:01;25.80;99.90
17774;DHT22;9011;33.236;-97.118;2022-09-03T05:34:32;25.80;99.90
17774;DHT22;9011;33.236;-97.118;2022-09-03T05:37:00;25.80;99.90
17774;DHT22;9011;33.236;-97.118;2022-09-03T05:39:29;25.90;99.90
17774;DHT22;9011;33.236;-97.118;2022-09-03T05:42:00;25.80;99.90
17774;DHT22;9011;33.236;-97.118;2022-09-03T05:44:29;25.80;99.90
17774;DHT22;9011;33.236;-97.118;2022-09-03T05:46:57;25.90;99.90
17774;DHT22;9011;33.236;-97.118;2022-09-03T05:49:26;25.90;99.90
17774;DHT22;9011;33.236;-97.118;2022-09-03T05:51:57;25.90;99.90
17774;DHT22;9011;33.236;-97.118;2022-09-03T05:54:26;26.00;99.90
17774;DHT22;9011;33.236;-97.118;2022-09-03T05:56:57;26.00;99.90
17774;DHT22;9011;33.236;-97.118;2022-09-03T05:59:26;26.00;99.90
17774;DHT22;9011;33.236;-97.118;2022-09-03T06:01:54;26.00;99.90
17774;DHT22;9011;33.236;-97.118;2022-09-03T06:04:23;26.00;99.90
17774;DHT22;9011;33.236;-97.118;2022-09-03T06:06:59;26.00;99.90
17774;DHT22;9011;33.236;-97.118;2022-09-03T06:09:32;25.90;99.90
17774;DHT22;9011;33.236;-97.118;2022-09-03T06:12:08;25.90;99.90
17774;DHT22;9011;33.236;-97.118;2022-09-03T06:14:36;26.00;99.90
17774;DHT22;9011;33.236;-97.118;2022-09-03T06:17:08;25.90;99.90
17774;DHT22;9011;33.236;-97.118;2022-09-03T06:19:40;25.90;99.90
17774;DHT22;9011;33.236;-97.118;2022-09-03T06:22:12;26.00;99.90
17774;DHT22;9011;33.236;-97.118;2022-09-03T06:24:46;25.90;99.90
17774;DHT22;9011;33.236;-97.118;2022-09-03T06:27:26;25.90;99.90
17774;DHT22;9011;33.236;-97.118;2022-09-03T06:30:08;25.80;99.90
17774;DHT22;9011;33.236;-97.118;2022-09-03T06:32:43;25.70;99.90
17774;DHT22;9011;33.236;-97.118;2022-09-03T06:35:16;25.70;99.90
17774;DHT22;9011;33.236;-97.118;2022-09-03T06:37:52;25.60;99.90
17774;DHT22;9011;33.236;-97.118;2022-09-03T06:40:24;25.50;99.90
17774;DHT22;9011;33.236;-97.118;2022-09-03T06:43:06;25.30;99.90
17774;DHT22;9011;33.236;-97.118;2022-09-03T06:45:53;25.30;99.90
17774;DHT22;9011;33.236;-97.118;2022-09-03T06:48:21;25.30;99.90
17774;DHT22;9011;33.236;-97.118;2022-09-03T06:50:57;25.40;99.90
17774;DHT22;9011;33.236;-97.118;2022-09-03T06:53:33;25.50;99.90
17774;DHT22;9011;33.236;-97.118;2022-09-03T06:56:03;25.30;99.90
17774;DHT22;9011;33.236;-97.118;2022-09-03T06:58:56;25.20;99.90
17774;DHT22;9011;33.236;-97.118;2022-09-03T07:01:31;25.30;99.90
17774;DHT22;9011;33.236;-97.118;2022-09-03T07:04:09;25.30;99.90
17774;DHT22;9011;33.236;-97.118;2022-09-03T07:06:52;25.30;99.90
17774;DHT22;9011;33.236;-97.118;2022-09-03T07:09:25;25.20;99.90
17774;DHT22;9011;33.236;-97.118;2022-09-03T07:12:11;25.10;99.90
17774;DHT22;9011;33.236;-97.118;2022-09-03T07:14:51;25.10;99.90
17774;DHT22;9011;33.236;-97.118;2022-09-03T07:17:20;25.20;99.90
17774;DHT22;9011;33.236;-97.118;2022-09-03T07:19:52;25.10;99.90
17774;DHT22;9011;33.236;-97.118;2022-09-03T07:22:23;25.10;99.90
17774;DHT22;9011;33.236;-97.118;2022-09-03T07:24:53;25.10;99.90
17774;DHT22;9011;33.236;-97.118;2022-09-03T07:27:25;25.10;99.90
17774;DHT22;9011;33.236;-97.118;2022-09-03T07:29:54;25.10;99.90
17774;DHT22;9011;33.236;-97.118;2022-09-03T07:32:23;25.10;99.90
17774;DHT22;9011;33.236;-97.118;2022-09-03T07:34:58;25.10;99.90
17774;DHT22;9011;33.236;-97.118;2022-09-03T07:37:32;25.10;99.90
17774;DHT22;9011;33.236;-97.118;2022-09-03T07:40:05;25.10;99.90
17774;DHT22;9011;33.236;-97.118;2022-09-03T07:42:34;25.10;99.90
17774;DHT22;9011;33.236;-97.118;2022-09-03T07:45:05;25.10;99.90
17774;DHT22;9011;33.236;-97.118;2022-09-03T07:47:46;25.10;99.90
17774;DHT22;9011;33.236;-97.118;2022-09-03T07:50:15;25.10;99.90
17774;DHT22;9011;33.236;-97.118;2022-09-03T07:52:45;25.10;99.90
17774;DHT22;9011;33.236;-97.118;2022-09-03T07:55:19;25.10;99.90
17774;DHT22;9011;33.236;-97.118;2022-09-03T07:57:47;25.00;99.90
17774;DHT22;9011;33.236;-97.118;2022-09-03T08:00:19;25.00;99.90
17774;DHT22;9011;33.236;-97.118;2022-09-03T08:02:53;25.00;99.90
17774;DHT22;9011;33.236;-97.118;2022-09-03T08:05:26;25.00;99.90
17774;DHT22;9011;33.236;-97.118;2022-09-03T08:08:02;24.90;99.90
17774;DHT22;9011;33.236;-97.118;2022-09-03T08:10:35;25.00;99.90
17774;DHT22;9011;33.236;-97.118;2022-09-03T08:13:05;25.00;99.90
17774;DHT22;9011;33.236;-97.118;2022-09-03T08:15:36;25.00;99.90
17774;DHT22;9011;33.236;-97.118;2022-09-03T08:18:08;25.00;99.90
17774;DHT22;9011;33.236;-97.118;2022-09-03T08:20:39;25.00;99.90
17774;DHT22;9011;33.236;-97.118;2022-09-03T08:23:08;25.00;99.90
17774;DHT22;9011;33.236;-97.118;2022-09-03T08:25:43;25.00;99.90
17774;DHT22;9011;33.236;-97.118;2022-09-03T08:28:12;25.00;99.90
17774;DHT22;9011;33.236;-97.118;2022-09-03T08:30:41;25.10;99.90
17774;DHT22;9011;33.236;-97.118;2022-09-03T08:33:11;25.00;99.90
17774;DHT22;9011;33.236;-97.118;2022-09-03T08:35:40;25.00;99.90
17774;DHT22;9011;33.236;-97.118;2022-09-03T08:38:16;25.10;99.90
17774;DHT22;9011;33.236;-97.118;2022-09-03T08:40:48;25.10;99.90
17774;DHT22;9011;33.236;-97.118;2022-09-03T08:43:21;25.10;99.90
17774;DHT22;9011;33.236;-97.118;2022-09-03T08:45:49;25.10;99.90
17774;DHT22;9011;33.236;-97.118;2022-09-03T08:48:27;25.10;99.90
17774;DHT22;9011;33.236;-97.118;2022-09-03T08:51:01;25.10;99.90
17774;DHT22;9011;33.236;-97.118;2022-09-03T08:53:40;25.10;99.90
17774;DHT22;9011;33.236;-97.118;2022-09-03T08:56:24;25.10;99.90
17774;DHT22;9011;33.236;-97.118;2022-09-03T08:59:18;25.00;99.90
17774;DHT22;9011;33.236;-97.118;2022-09-03T09:01:59;25.00;99.90
17774;DHT22;9011;33.236;-97.118;2022-09-03T09:04:48;24.90;99.90
17774;DHT22;9011;33.236;-97.118;2022-09-03T09:07:31;24.90;99.90
17774;DHT22;9011;33.236;-97.118;2022-09-03T09:10:42;24.70;99.90
17774;DHT22;9011;33.236;-97.118;2022-09-03T09:13:38;24.50;99.90
17774;DHT22;9011;33.236;-97.118;2022-09-03T09:16:42;24.50;99.90
17774;DHT22;9011;33.236;-97.118;2022-09-03T09:19:36;24.40;99.90
17774;DHT22;9011;33.236;-97.118;2022-09-03T09:22:30;24.40;99.90
17774;DHT22;9011;33.236;-97.118;2022-09-03T09:25:21;24.50;99.90
17774;DHT22;9011;33.236;-97.118;2022-09-03T09:28:15;24.60;99.90
17774;DHT22;9011;33.236;-97.118;2022-09-03T09:30:56;24.50;99.90
17774;DHT22;9011;33.236;-97.118;2022-09-03T09:33:30;24.40;99.90
17774;DHT22;9011;33.236;-97.118;2022-09-03T09:36:15;24.50;99.90
17774;DHT22;9011;33.236;-97.118;2022-09-03T09:38:46;24.50;99.90
17774;DHT22;9011;33.236;-97.118;2022-09-03T09:41:37;24.50;99.90
17774;DHT22;9011;33.236;-97.118;2022-09-03T09:44:31;24.50;99.90
17774;DHT22;9011;33.236;-97.118;2022-09-03T09:47:37;24.50;99.90
17774;DHT22;9011;33.236;-97.118;2022-09-03T09:50:35;24.50;99.90
17774;DHT22;9011;33.236;-97.118;2022-09-03T09:53:26;24.40;99.90
17774;DHT22;9011;33.236;-97.118;2022-09-03T09:56:27;24.40;99.90
17774;DHT22;9011;33.236;-97.118;2022-09-03T09:59:29;24.50;99.90
17774;DHT22;9011;33.236;-97.118;2022-09-03T10:02:18;24.40;99.90
17774;DHT22;9011;33.236;-97.118;2022-09-03T10:05:14;24.40;99.90
17774;DHT22;9011;33.236;-97.118;2022-09-03T10:08:17;24.40;99.90
17774;DHT22;9011;33.236;-97.118;2022-09-03T10:11:39;24.20;99.90
17774;DHT22;9011;33.236;-97.118;2022-09-03T10:14:33;24.20;99.90
17774;DHT22;9011;33.236;-97.118;2022-09-03T10:17:46;24.10;99.90
17774;DHT22;9011;33.236;-97.118;2022-09-03T10:21:02;24.10;99.90
17774;DHT22;9011;33.236;-97.118;2022-09-03T10:24:16;24.00;99.90
17774;DHT22;9011;33.236;-97.118;2022-09-03T10:27:21;24.00;99.90
17774;DHT22;9011;33.236;-97.118;2022-09-03T10:30:39;24.00;99.90
17774;DHT22;9011;33.236;-97.118;2022-09-03T10:37:18;24.00;99.90
17774;DHT22;9011;33.236;-97.118;2022-09-03T10:47:00;24.10;99.90
17774;DHT22;9011;33.236;-97.118;2022-09-03T10:50:27;24.10;99.90
17774;DHT22;9011;33.236;-97.118;2022-09-03T11:18:11;23.90;99.90
17774;DHT22;9011;33.236;-97.118;2022-09-03T11:21:49;23.90;99.90
17774;DHT22;9011;33.236;-97.118;2022-09-03T12:43:29;23.40;99.90
17774;DHT22;9011;33.236;-97.118;2022-09-03T13:00:50;23.80;99.90
17774;DHT22;9011;33.236;-97.118;2022-09-03T13:03:30;23.80;99.90
17774;DHT22;9011;33.236;-97.118;2022-09-03T13:06:26;24.00;99.90
17774;DHT22;9011;33.236;-97.118;2022-09-03T13:09:39;24.00;99.90
17774;DHT22;9011;33.236;-97.118;2022-09-03T13:12:20;24.10;99.90
17774;DHT22;9011;33.236;-97.118;2022-09-03T13:14:49;24.20;99.90
17774;DHT22;9011;33.236;-97.118;2022-09-03T13:17:34;24.30;99.90
17774;DHT22;9011;33.236;-97.118;2022-09-03T13:20:20;24.40;99.90
17774;DHT22;9011;33.236;-97.118;2022-09-03T13:25:50;24.50;99.90
17774;DHT22;9011;33.236;-97.118;2022-09-03T13:28:29;24.60;99.90
17774;DHT22;9011;33.236;-97.118;2022-09-03T13:31:06;24.70;99.90
17774;DHT22;9011;33.236;-97.118;2022-09-03T13:33:42;24.80;99.90
17774;DHT22;9011;33.236;-97.118;2022-09-03T13:36:15;24.90;99.90
17774;DHT22;9011;33.236;-97.118;2022-09-03T13:38:50;25.00;99.90
17774;DHT22;9011;33.236;-97.118;2022-09-03T13:41:31;25.10;99.90
17774;DHT22;9011;33.236;-97.118;2022-09-03T13:44:07;25.10;99.90
17774;DHT22;9011;33.236;-97.118;2022-09-03T13:46:43;25.30;99.90
17774;DHT22;9011;33.236;-97.118;2022-09-03T13:49:30;25.40;99.90
17774;DHT22;9011;33.236;-97.118;2022-09-03T13:52:23;25.40;99.90
17774;DHT22;9011;33.236;-97.118;2022-09-03T13:54:58;25.50;99.90
17774;DHT22;9011;33.236;-97.118;2022-09-03T13:57:34;25.60;99.90
17774;DHT22;9011;33.236;-97.118;2022-09-03T14:00:07;25.70;99.90
17774;DHT22;9011;33.236;-97.118;2022-09-03T14:02:47;25.80;99.90
17774;DHT22;9011;33.236;-97.118;2022-09-03T14:05:31;26.00;99.90
17774;DHT22;9011;33.236;-97.118;2022-09-03T14:08:14;26.20;99.90
17774;DHT22;9011;33.236;-97.118;2022-09-03T14:11:02;26.20;99.90
17774;DHT22;9011;33.236;-97.118;2022-09-03T14:13:59;26.20;99.90
17774;DHT22;9011;33.236;-97.118;2022-09-03T14:16:43;26.30;99.90
17774;DHT22;9011;33.236;-97.118;2022-09-03T14:19:18;26.50;99.90
17774;DHT22;9011;33.236;-97.118;2022-09-03T14:21:55;26.60;99.90
17774;DHT22;9011;33.236;-97.118;2022-09-03T14:24:28;26.70;99.90
17774;DHT22;9011;33.236;-97.118;2022-09-03T14:27:00;26.80;99.90
17774;DHT22;9011;33.236;-97.118;2022-09-03T14:29:31;26.90;99.90
17774;DHT22;9011;33.236;-97.118;2022-09-03T14:35:12;27.10;99.90
17774;DHT22;9011;33.236;-97.118;2022-09-03T14:41:05;27.50;99.90
17774;DHT22;9011;33.236;-97.118;2022-09-03T14:46:53;27.70;99.90
17774;DHT22;9011;33.236;-97.118;2022-09-03T14:49:49;27.90;99.90
17774;DHT22;9011;33.236;-97.118;2022-09-03T14:52:49;27.90;99.90
17774;DHT22;9011;33.236;-97.118;2022-09-03T14:55:59;27.90;99.90
17774;DHT22;9011;33.236;-97.118;2022-09-03T14:58:42;28.10;99.90
17774;DHT22;9011;33.236;-97.118;2022-09-03T15:01:16;28.10;99.90
17774;DHT22;9011;33.236;-97.118;2022-09-03T15:07:00;28.30;99.90
17774;DHT22;9011;33.236;-97.118;2022-09-03T15:09:37;28.20;99.90
17774;DHT22;9011;33.236;-97.118;2022-09-03T15:12:17;28.50;99.90
17774;DHT22;9011;33.236;-97.118;2022-09-03T15:14:52;28.60;99.90
17774;DHT22;9011;33.236;-97.118;2022-09-03T15:17:34;28.80;99.90
17774;DHT22;9011;33.236;-97.118;2022-09-03T15:20:18;28.90;99.90
17774;DHT22;9011;33.236;-97.118;2022-09-03T15:23:19;29.00;99.90
17774;DHT22;9011;33.236;-97.118;2022-09-03T15:29:08;29.40;99.90
17774;DHT22;9011;33.236;-97.118;2022-09-03T15:35:05;29.60;99.90
17774;DHT22;9011;33.236;-97.118;2022-09-03T15:37:42;29.50;99.90
17774;DHT22;9011;33.236;-97.118;2022-09-03T15:40:24;29.80;99.90
17774;DHT22;9011;33.236;-97.118;2022-09-03T15:46:13;29.90;99.90
17774;DHT22;9011;33.236;-97.118;2022-09-03T15:48:59;30.20;99.90
17774;DHT22;9011;33.236;-97.118;2022-09-03T15:51:31;30.30;99.90
17774;DHT22;9011;33.236;-97.118;2022-09-03T15:54:08;30.30;99.90
17774;DHT22;9011;33.236;-97.118;2022-09-03T15:56:42;30.20;99.90
17774;DHT22;9011;33.236;-97.118;2022-09-03T15:59:20;30.40;99.90
17774;DHT22;9011;33.236;-97.118;2022-09-03T16:01:56;30.40;99.90
17774;DHT22;9011;33.236;-97.118;2022-09-03T16:04:39;30.30;99.90
17774;DHT22;9011;33.236;-97.118;2022-09-03T16:07:17;30.60;99.90
17774;DHT22;9011;33.236;-97.118;2022-09-03T16:09:55;30.70;99.90
17774;DHT22;9011;33.236;-97.118;2022-09-03T16:12:33;31.00;99.90
17774;DHT22;9011;33.236;-97.118;2022-09-03T16:15:09;31.00;99.90
17774;DHT22;9011;33.236;-97.118;2022-09-03T16:17:52;31.10;99.90
17774;DHT22;9011;33.236;-97.118;2022-09-03T16:20:26;31.30;99.90
17774;DHT22;9011;33.236;-97.118;2022-09-03T16:23:03;31.50;99.90
17774;DHT22;9011;33.236;-97.118;2022-09-03T16:25:44;31.60;99.90
17774;DHT22;9011;33.236;-97.118;2022-09-03T16:28:17;31.50;99.90
17774;DHT22;9011;33.236;-97.118;2022-09-03T16:31:10;31.70;99.90
17774;DHT22;9011;33.236;-97.118;2022-09-03T16:33:45;31.70;99.90
17774;DHT22;9011;33.236;-97.118;2022-09-03T16:36:28;31.80;99.90
17774;DHT22;9011;33.236;-97.118;2022-09-03T16:39:02;31.80;99.90
17774;DHT22;9011;33.236;-97.118;2022-09-03T16:41:40;31.60;99.90
17774;DHT22;9011;33.236;-97.118;2022-09-03T16:44:18;31.80;99.90
17774;DHT22;9011;33.236;-97.118;2022-09-03T16:46:54;32.00;99.90
17774;DHT22;9011;33.236;-97.118;2022-09-03T16:49:48;32.10;99.90
17774;DHT22;9011;33.236;-97.118;2022-09-03T16:52:29;32.30;99.90
17774;DHT22;9011;33.236;-97.118;2022-09-03T16:55:09;32.50;99.90
17774;DHT22;9011;33.236;-97.118;2022-09-03T16:57:53;32.60;99.90
17774;DHT22;9011;33.236;-97.118;2022-09-03T17:00:27;32.60;99.90
17774;DHT22;9011;33.236;-97.118;2022-09-03T17:09:09;33.00;99.90
17774;DHT22;9011;33.236;-97.118;2022-09-03T17:11:50;33.00;99.90
17774;DHT22;9011;33.236;-97.118;2022-09-03T17:14:45;33.00;99.90
17774;DHT22;9011;33.236;-97.118;2022-09-03T17:17:22;32.90;99.90
17774;DHT22;9011;33.236;-97.118;2022-09-03T17:19:55;33.00;99.90
17774;DHT22;9011;33.236;-97.118;2022-09-03T17:22:36;33.00;99.90
17774;DHT22;9011;33.236;-97.118;2022-09-03T17:25:18;33.40;99.90
17774;DHT22;9011;33.236;-97.118;2022-09-03T17:27:51;33.50;99.90
17774;DHT22;9011;33.236;-97.118;2022-09-03T17:30:34;33.40;99.90
17774;DHT22;9011;33.236;-97.118;2022-09-03T17:33:25;33.30;99.90
17774;DHT22;9011;33.236;-97.118;2022-09-03T17:36:10;33.10;99.90
17774;DHT22;9011;33.236;-97.118;2022-09-03T17:39:11;33.50;99.90
17774;DHT22;9011;33.236;-97.118;2022-09-03T17:41:46;33.30;99.90
17774;DHT22;9011;33.236;-97.118;2022-09-03T17:44:25;33.70;99.90
17774;DHT22;9011;33.236;-97.118;2022-09-03T17:47:06;33.80;99.90
17774;DHT22;9011;33.236;-97.118;2022-09-03T17:49:45;33.60;99.90
17774;DHT22;9011;33.236;-97.118;2022-09-03T17:52:22;33.70;99.90
17774;DHT22;9011;33.236;-97.118;2022-09-03T17:54:57;33.80;99.90
17774;DHT22;9011;33.236;-97.118;2022-09-03T17:57:29;33.90;99.90
17774;DHT22;9011;33.236;-97.118;2022-09-03T18:00:02;33.90;99.90
17774;DHT22;9011;33.236;-97.118;2022-09-03T18:02:34;34.10;99.90
17774;DHT22;9011;33.236;-97.118;2022-09-03T18:05:09;34.40;99.90
17774;DHT22;9011;33.236;-97.118;2022-09-03T18:07:46;34.50;99.90
17774;DHT22;9011;33.236;-97.118;2022-09-03T18:10:23;34.70;99.90
17774;DHT22;9011;33.236;-97.118;2022-09-03T18:12:58;34.90;99.90
17774;DHT22;9011;33.236;-97.118;2022-09-03T18:15:36;34.20;99.90
17774;DHT22;9011;33.236;-97.118;2022-09-03T18:18:11;34.30;99.90
17774;DHT22;9011;33.236;-97.118;2022-09-03T18:20:48;34.30;99.90
17774;DHT22;9011;33.236;-97.118;2022-09-03T18:23:49;34.20;99.90
17774;DHT22;9011;33.236;-97.118;2022-09-03T18:26:42;34.10;99.90
17774;DHT22;9011;33.236;-97.118;2022-09-03T18:29:34;34.20;99.90
17774;DHT22;9011;33.236;-97.118;2022-09-03T18:32:20;34.80;99.90
17774;DHT22;9011;33.236;-97.118;2022-09-03T18:35:07;35.00;99.90
17774;DHT22;9011;33.236;-97.118;2022-09-03T18:37:53;35.00;99.90
17774;DHT22;9011;33.236;-97.118;2022-09-03T18:40:42;34.60;99.90
17774;DHT22;9011;33.236;-97.118;2022-09-03T18:43:36;34.90;99.90
17774;DHT22;9011;33.236;-97.118;2022-09-03T18:46:30;35.10;99.90
17774;DHT22;9011;33.236;-97.118;2022-09-03T18:49:24;35.20;99.90
17774;DHT22;9011;33.236;-97.118;2022-09-03T18:52:16;35.30;99.90
17774;DHT22;9011;33.236;-97.118;2022-09-03T18:55:10;35.40;99.90
17774;DHT22;9011;33.236;-97.118;2022-09-03T18:58:08;35.50;99.90
17774;DHT22;9011;33.236;-97.118;2022-09-03T19:01:03;35.50;99.90
17774;DHT22;9011;33.236;-97.118;2022-09-03T19:04:01;35.20;99.90
17774;DHT22;9011;33.236;-97.118;2022-09-03T19:07:01;35.70;99.90
17774;DHT22;9011;33.236;-97.118;2022-09-03T19:09:53;36.00;99.90